createdAt,value
2022-10-15T00:30:36.318Z,0
2022-10-15T00:31:16.542Z,0
2022-10-15T00:31:57.050Z,0
2022-10-15T00:37:20.922Z,0
2022-10-15T00:38:01.430Z,0
2022-10-15T00:38:41.915Z,0
2022-10-15T00:39:22.393Z,0
2022-10-15T00:40:43.338Z,0
2022-10-15T00:41:23.828Z,0
2022-10-15T00:42:04.290Z,0
2022-10-15T00:42:44.786Z,0
2022-10-15T00:43:25.253Z,0
2022-10-15T00:50:50.644Z,0
2022-10-15T00:51:31.136Z,0
2022-10-15T00:52:11.594Z,0
2022-10-15T00:52:52.044Z,0
2022-10-15T00:53:32.518Z,0
2022-10-15T00:54:12.995Z,0
2022-10-15T00:54:53.498Z,0
2022-10-15T00:55:34.011Z,0
2022-10-15T00:56:14.469Z,0
2022-10-15T00:56:54.897Z,0
2022-10-15T00:57:35.357Z,0
2022-10-15T01:03:54.186Z,0
2022-10-15T01:04:34.695Z,0
2022-10-15T01:05:15.150Z,0
2022-10-15T01:13:20.988Z,0
2022-10-15T01:14:01.444Z,0
2022-10-15T01:14:41.932Z,0
2022-10-15T01:15:22.402Z,0
2022-10-15T01:16:02.924Z,0
2022-10-15T01:16:43.344Z,0
2022-10-15T01:17:24.013Z,0
2022-10-15T01:18:04.316Z,0
2022-10-15T01:18:44.776Z,0
2022-10-15T01:19:25.233Z,0
2022-10-15T01:26:50.618Z,0
2022-10-15T01:27:31.098Z,0
2022-10-15T01:28:11.653Z,0
2022-10-15T01:28:52.242Z,0
2022-10-15T01:29:32.732Z,0
2022-10-15T01:30:53.688Z,0
2022-10-15T01:31:34.197Z,0
2022-10-15T01:32:14.919Z,0
2022-10-15T01:32:55.124Z,0
2022-10-15T01:33:35.610Z,0
2022-10-15T01:41:00.937Z,0
2022-10-15T01:41:41.488Z,0
2022-10-15T01:42:21.957Z,0
2022-10-15T01:43:42.922Z,0
2022-10-15T01:45:56.022Z,0
2022-10-15T01:46:36.401Z,0
2022-10-15T01:47:16.954Z,0
2022-10-15T01:52:40.824Z,0
2022-10-15T01:53:21.322Z,0
2022-10-15T01:54:01.791Z,0
2022-10-15T01:54:42.243Z,0
2022-10-15T01:55:22.768Z,0
2022-10-15T01:56:03.426Z,0
2022-10-15T01:56:43.855Z,0
2022-10-15T01:57:24.502Z,0
2022-10-15T01:58:04.796Z,0
2022-10-15T01:58:45.347Z,0
2022-10-15T02:04:42.225Z,0
2022-10-15T02:05:22.607Z,0
2022-10-15T02:06:03.180Z,0
2022-10-15T02:10:46.718Z,0
2022-10-15T02:11:27.233Z,0
2022-10-15T02:12:07.661Z,0
2022-10-15T02:12:48.185Z,0
2022-10-15T02:13:28.841Z,0
2022-10-15T02:14:09.324Z,0
2022-10-15T02:14:49.826Z,0
2022-10-15T02:15:30.358Z,0
2022-10-15T02:16:10.841Z,0
2022-10-15T02:16:51.419Z,0
2022-10-15T02:24:16.727Z,0
2022-10-15T02:24:57.194Z,0
2022-10-15T02:25:37.716Z,0
2022-10-15T02:26:18.178Z,0
2022-10-15T02:26:58.660Z,0
2022-10-15T02:27:39.193Z,0
2022-10-15T02:28:19.760Z,0
2022-10-15T02:29:00.350Z,0
2022-10-15T02:29:40.600Z,0
2022-10-15T02:30:21.026Z,0
2022-10-15T02:31:01.549Z,0
2022-10-15T02:37:46.812Z,0
2022-10-15T02:38:27.336Z,0
2022-10-15T02:39:07.713Z,0
2022-10-15T02:39:48.148Z,0
2022-10-15T02:40:28.610Z,0
2022-10-15T02:41:09.109Z,0
2022-10-15T02:41:49.615Z,0
2022-10-15T02:42:30.149Z,0
2022-10-15T02:43:10.576Z,0
2022-10-15T02:43:51.055Z,0
2022-10-15T02:44:31.532Z,0
2022-10-15T02:52:37.534Z,0
2022-10-15T02:53:17.980Z,0
2022-10-15T02:53:58.500Z,0
2022-10-15T02:54:38.977Z,0
2022-10-15T02:55:19.465Z,0
2022-10-15T02:55:59.976Z,0
2022-10-15T02:56:40.562Z,0
2022-10-15T02:57:21.155Z,0
2022-10-15T02:58:01.467Z,0
2022-10-15T03:06:07.371Z,0
2022-10-15T03:06:47.883Z,0
2022-10-15T03:07:28.324Z,0
2022-10-15T03:08:08.813Z,0
2022-10-15T03:08:49.328Z,0
2022-10-15T03:09:29.844Z,0
2022-10-15T03:10:10.411Z,0
2022-10-15T03:10:50.832Z,0
2022-10-15T03:11:31.337Z,0
2022-10-15T03:18:56.954Z,0
2022-10-15T03:19:37.457Z,0
2022-10-15T03:20:17.886Z,0
2022-10-15T03:20:58.389Z,0
2022-10-15T03:21:38.927Z,0
2022-10-15T03:22:19.495Z,0
2022-10-15T03:26:30.547Z,0
2022-10-15T03:27:10.792Z,0
2022-10-15T03:27:51.254Z,0
2022-10-15T03:33:15.175Z,0
2022-10-15T03:33:55.887Z,0
2022-10-15T03:35:17.061Z,0
2022-10-15T03:35:57.505Z,0
2022-10-15T03:36:38.027Z,0
2022-10-15T03:37:18.853Z,0
2022-10-15T03:37:59.488Z,0
2022-10-15T03:42:54.578Z,0
2022-10-15T03:43:42.861Z,0
2022-10-15T03:44:31.738Z,0
2022-10-15T03:45:20.870Z,0
2022-10-15T03:46:09.088Z,0
2022-10-15T03:46:58.363Z,0
2022-10-15T03:47:46.948Z,0
2022-10-15T03:48:36.140Z,0
2022-10-15T03:49:24.810Z,0
2022-10-15T03:50:13.334Z,0
2022-10-15T03:51:02.466Z,0
2022-10-15T03:53:30.220Z,0
2022-10-15T03:54:18.867Z,0
2022-10-15T03:55:07.577Z,0
2022-10-15T03:55:56.069Z,0
2022-10-15T03:56:45.116Z,0
2022-10-15T03:57:34.023Z,0
2022-10-15T03:58:22.558Z,0
2022-10-15T04:00:53.256Z,0
2022-10-15T04:01:33.762Z,0
2022-10-15T04:02:14.231Z,0
2022-10-15T04:06:18.009Z,0
2022-10-15T04:06:58.249Z,0
2022-10-15T04:07:38.715Z,0
2022-10-15T04:08:19.189Z,0
2022-10-15T04:08:59.726Z,0
2022-10-15T04:09:40.249Z,0
2022-10-15T04:10:20.918Z,0
2022-10-15T04:11:01.170Z,0
2022-10-15T04:11:42.417Z,0
2022-10-15T04:17:48.018Z,0
2022-10-15T04:18:28.582Z,0
2022-10-15T04:19:10.978Z,0
2022-10-15T04:24:25.483Z,0
2022-10-15T04:25:06.005Z,0
2022-10-15T04:25:46.525Z,0
2022-10-15T04:30:30.578Z,0
2022-10-15T04:34:10.333Z,0
2022-10-15T04:34:50.625Z,0
2022-10-15T04:35:31.152Z,0
2022-10-15T04:40:14.900Z,0
2022-10-15T04:40:55.468Z,0
2022-10-15T04:41:35.890Z,0
2022-10-15T04:42:16.337Z,0
2022-10-15T04:42:56.827Z,0
2022-10-15T04:43:37.429Z,0
2022-10-15T04:44:18.103Z,0
2022-10-15T04:44:58.624Z,0
2022-10-15T04:45:39.066Z,0
2022-10-15T04:46:19.635Z,0
2022-10-15T04:55:25.558Z,0
2022-10-15T04:56:05.935Z,0
2022-10-15T04:56:46.740Z,0
2022-10-15T04:57:27.429Z,0
2022-10-15T04:58:07.911Z,0
2022-10-15T04:58:48.404Z,0
2022-10-15T04:59:28.859Z,0
2022-10-15T05:00:09.537Z,0
2022-10-15T05:00:49.837Z,0
2022-10-15T05:01:30.382Z,0
2022-10-15T05:08:56.145Z,0
2022-10-15T05:09:37.077Z,0
2022-10-15T05:10:17.339Z,0
2022-10-15T05:10:57.830Z,0
2022-10-15T05:12:18.975Z,0
2022-10-15T05:12:59.532Z,0
2022-10-15T05:13:40.013Z,0
2022-10-15T05:14:20.578Z,0
2022-10-15T05:21:06.153Z,0
2022-10-15T05:21:46.755Z,0
2022-10-15T05:22:27.789Z,0
2022-10-15T05:23:08.234Z,0
2022-10-15T05:23:49.119Z,0
2022-10-15T05:24:29.511Z,0
2022-10-15T05:25:10.623Z,0
2022-10-15T05:31:55.849Z,0
2022-10-15T05:32:36.313Z,0
2022-10-15T05:33:16.782Z,0
2022-10-15T05:33:57.266Z,0
2022-10-15T05:37:36.900Z,0
2022-10-15T05:38:17.186Z,0
2022-10-15T05:41:36.032Z,0
2022-10-15T05:42:16.473Z,0
2022-10-15T05:42:56.977Z,0
2022-10-15T05:50:14.218Z,0
2022-10-15T05:50:54.718Z,0
2022-10-15T05:51:35.144Z,0
2022-10-15T06:32:07.203Z,15
2022-10-15T06:32:47.677Z,10
2022-10-15T06:33:28.306Z,10
2022-10-15T06:39:32.110Z,15
2022-10-15T06:40:12.356Z,15
2022-10-15T06:40:52.867Z,15
2022-10-15T06:45:36.251Z,10
2022-10-15T06:46:16.740Z,10
2022-10-15T06:46:57.276Z,10
2022-10-15T06:47:37.760Z,10
2022-10-15T06:48:58.706Z,10
2022-10-15T06:49:39.226Z,10
2022-10-15T06:50:19.713Z,10
2022-10-15T06:51:00.439Z,10
2022-10-15T06:51:40.829Z,10
2022-10-15T06:59:06.133Z,10
2022-10-15T06:59:46.601Z,10
2022-10-15T07:00:27.211Z,10
2022-10-15T07:01:07.574Z,10
2022-10-15T07:01:48.097Z,10
2022-10-15T07:02:28.597Z,10
2022-10-15T07:03:09.134Z,10
2022-10-15T07:03:49.584Z,10
2022-10-15T07:04:30.096Z,10
2022-10-15T07:05:10.600Z,10
2022-10-15T07:05:51.111Z,10
2022-10-15T07:19:04.172Z,10
2022-10-15T07:19:44.655Z,15
2022-10-15T07:20:25.157Z,15
2022-10-15T07:25:08.648Z,20
2022-10-15T07:25:49.356Z,20
2022-10-15T07:26:29.599Z,20
2022-10-15T07:27:18.598Z,20
2022-10-15T07:27:50.590Z,20
2022-10-15T07:28:31.248Z,25
2022-10-15T07:29:11.652Z,25
2022-10-15T07:29:52.336Z,25
2022-10-15T07:30:32.954Z,25
2022-10-15T07:37:18.857Z,25
2022-10-15T07:37:59.131Z,25
2022-10-15T07:38:39.690Z,25
2022-10-15T07:39:20.232Z,25
2022-10-15T07:40:00.703Z,25
2022-10-15T07:40:41.126Z,25
2022-10-15T07:41:21.593Z,25
2022-10-15T07:42:02.137Z,25
2022-10-15T07:46:07.112Z,20
2022-10-15T07:46:47.680Z,20
2022-10-15T07:47:28.106Z,20
2022-10-15T07:48:08.686Z,20
2022-10-15T07:52:52.294Z,15
2022-10-15T07:53:32.630Z,15
2022-10-15T07:54:13.137Z,15
2022-10-15T07:54:53.681Z,15
2022-10-15T07:55:34.180Z,15
2022-10-15T07:56:14.703Z,15
2022-10-15T07:59:54.201Z,15
2022-10-15T08:00:34.570Z,15
2022-10-15T08:01:15.045Z,15
2022-10-15T08:05:58.702Z,15
2022-10-15T08:06:39.147Z,15
2022-10-15T08:07:19.686Z,15
2022-10-15T08:08:00.138Z,15
2022-10-15T08:08:40.707Z,15
2022-10-15T08:09:21.154Z,20
2022-10-15T08:10:01.800Z,20
2022-10-15T08:10:42.341Z,20
2022-10-15T08:11:22.872Z,20
2022-10-15T08:12:03.347Z,20
2022-10-15T08:18:08.667Z,20
2022-10-15T08:18:49.207Z,20
2022-10-15T08:19:30.177Z,20
2022-10-15T08:20:10.635Z,20
2022-10-15T08:20:51.134Z,20
2022-10-15T08:21:31.626Z,15
2022-10-15T08:25:11.055Z,15
2022-10-15T08:25:51.739Z,15
2022-10-15T08:26:32.249Z,15
2022-10-15T08:27:12.666Z,20
2022-10-15T08:31:56.100Z,20
2022-10-15T08:32:36.676Z,20
2022-10-15T08:33:17.209Z,20
2022-10-15T08:33:57.787Z,20
2022-10-15T08:34:38.253Z,20
2022-10-15T08:35:19.371Z,20
2022-10-15T08:35:59.948Z,25
2022-10-15T08:36:40.429Z,25
2022-10-15T08:41:15.655Z,25
2022-10-15T08:41:56.216Z,25
2022-10-15T08:42:36.581Z,20
2022-10-15T08:47:19.970Z,25
2022-10-15T08:48:00.492Z,30
2022-10-15T08:48:40.934Z,30
2022-10-15T08:49:21.517Z,30
2022-10-15T08:50:02.735Z,30
2022-10-15T08:53:41.949Z,25
2022-10-15T08:54:22.471Z,25
2022-10-15T08:55:02.923Z,25
2022-10-15T08:55:43.433Z,20
2022-10-15T08:59:46.512Z,15
2022-10-15T09:00:27.079Z,15
2022-10-15T09:01:07.462Z,20
2022-10-15T09:01:48.012Z,20
2022-10-15T09:02:28.536Z,20
2022-10-15T09:03:09.111Z,20
2022-10-15T09:03:49.552Z,20
2022-10-15T09:04:30.028Z,20
2022-10-15T09:05:10.509Z,25
2022-10-15T09:05:50.999Z,25
2022-10-15T09:06:31.496Z,25
2022-10-15T09:14:53.086Z,20
2022-10-15T09:15:33.555Z,25
2022-10-15T09:16:15.046Z,25
2022-10-15T09:16:56.114Z,30
2022-10-15T09:17:37.220Z,30
2022-10-15T09:18:18.509Z,30
2022-10-15T09:21:44.455Z,30
2022-10-15T09:22:25.475Z,25
2022-10-15T09:23:07.209Z,30
2022-10-15T09:23:48.235Z,30
2022-10-15T09:24:29.207Z,30
2022-10-15T09:27:54.325Z,35
2022-10-15T09:28:35.298Z,30
2022-10-15T09:29:16.267Z,30
2022-10-15T09:29:57.409Z,30
2022-10-15T09:30:38.454Z,30
2022-10-15T09:36:36.193Z,40
2022-10-15T09:37:16.691Z,40
2022-10-15T09:37:57.231Z,40
2022-10-15T09:42:01.160Z,20
2022-10-15T09:42:41.667Z,20
2022-10-15T09:43:22.159Z,20
2022-10-15T09:44:03.639Z,20
2022-10-15T09:44:43.198Z,20
2022-10-15T09:45:24.235Z,15
2022-10-15T09:46:04.717Z,15
2022-10-15T09:46:45.236Z,20
2022-10-15T09:47:25.714Z,20
2022-10-15T09:54:10.957Z,25
2022-10-15T09:54:51.555Z,25
2022-10-15T09:55:31.976Z,25
2022-10-15T09:56:12.478Z,25
2022-10-15T09:56:53.142Z,25
2022-10-15T09:57:33.581Z,25
2022-10-15T09:58:14.057Z,25
2022-10-15T09:58:54.515Z,30
2022-10-15T09:59:35.008Z,30
2022-10-15T10:00:15.535Z,30
2022-10-15T10:07:41.226Z,35
2022-10-15T10:08:21.843Z,35
2022-10-15T10:09:02.280Z,35
2022-10-15T10:09:42.748Z,40
2022-10-15T10:10:23.316Z,40
2022-10-15T10:11:03.947Z,40
2022-10-15T10:11:44.371Z,40
2022-10-15T10:12:25.296Z,40
2022-10-15T10:13:05.429Z,45
2022-10-15T10:19:10.961Z,25
2022-10-15T10:19:51.514Z,25
2022-10-15T10:20:31.939Z,25
2022-10-15T10:21:12.479Z,25
2022-10-15T10:21:53.004Z,25
2022-10-15T10:22:33.660Z,25
2022-10-15T10:23:14.198Z,30
2022-10-15T10:23:54.794Z,30
2022-10-15T10:24:35.278Z,30
2022-10-15T10:25:15.799Z,30
2022-10-15T10:32:00.783Z,30
2022-10-15T10:32:41.287Z,30
2022-10-15T10:33:21.846Z,30
2022-10-15T10:34:02.307Z,30
2022-10-15T10:34:42.779Z,30
2022-10-15T10:35:23.371Z,35
2022-10-15T10:36:04.025Z,35
2022-10-15T10:36:44.490Z,35
2022-10-15T10:37:25.146Z,35
2022-10-15T10:38:05.440Z,35
2022-10-15T10:44:51.200Z,40
2022-10-15T10:45:31.730Z,40
2022-10-15T10:46:12.238Z,45
2022-10-15T10:46:52.781Z,45
2022-10-15T10:47:33.237Z,40
2022-10-15T10:48:14.100Z,40
2022-10-15T10:48:54.580Z,40
2022-10-15T10:49:35.132Z,40
2022-10-15T10:50:15.618Z,40
2022-10-15T10:56:21.172Z,30
2022-10-15T10:57:01.650Z,35
2022-10-15T10:57:42.238Z,35
2022-10-15T10:58:24.804Z,35
2022-10-15T10:59:03.208Z,35
2022-10-15T10:59:43.736Z,35
2022-10-15T11:00:24.215Z,35
2022-10-15T11:01:04.727Z,35
2022-10-15T11:01:45.164Z,35
2022-10-15T11:02:25.653Z,35
2022-10-15T11:09:11.012Z,25
2022-10-15T11:09:53.730Z,25
2022-10-15T11:10:32.059Z,25
2022-10-15T11:11:12.582Z,25
2022-10-15T11:11:53.346Z,25
2022-10-15T11:12:33.883Z,30
2022-10-15T11:13:14.689Z,30
2022-10-15T11:13:55.171Z,30
2022-10-15T11:22:01.148Z,25
2022-10-15T11:22:41.662Z,25
2022-10-15T11:23:23.701Z,25
2022-10-15T11:24:02.621Z,25
2022-10-15T11:24:48.858Z,25
2022-10-15T11:25:23.556Z,25
2022-10-15T11:26:04.099Z,25
2022-10-15T11:26:52.360Z,25
2022-10-15T11:27:25.289Z,25
2022-10-15T11:28:05.696Z,30
2022-10-15T11:34:50.817Z,20
2022-10-15T11:35:48.464Z,20
2022-10-15T11:36:12.384Z,20
2022-10-15T11:36:52.895Z,15
2022-10-15T11:37:33.458Z,20
2022-10-15T11:38:13.863Z,20
2022-10-15T11:38:54.390Z,20
2022-10-15T11:39:34.833Z,20
2022-10-15T11:40:15.357Z,20
2022-10-15T11:48:21.948Z,30
2022-10-15T11:49:02.396Z,30
2022-10-15T11:49:43.051Z,25
2022-10-15T11:50:23.554Z,25
2022-10-15T11:51:04.075Z,25
2022-10-15T11:51:44.619Z,30
2022-10-15T11:52:25.326Z,30
2022-10-15T11:53:05.597Z,30
2022-10-15T12:32:26.844Z,25
2022-10-15T12:33:07.277Z,25
2022-10-15T12:33:47.762Z,25
2022-10-15T12:34:28.260Z,30
2022-10-15T12:37:51.470Z,30
2022-10-15T12:38:31.953Z,30
2022-10-15T12:39:17.570Z,30
2022-10-15T12:39:53.315Z,35
2022-10-15T12:40:34.562Z,35
2022-10-15T12:41:15.414Z,35
2022-10-15T12:41:56.046Z,35
2022-10-15T12:46:43.615Z,40
2022-10-15T12:47:24.424Z,35
2022-10-15T12:48:04.697Z,40
2022-10-15T12:48:45.367Z,35
2022-10-15T12:49:25.851Z,35
2022-10-15T12:53:32.286Z,35
2022-10-15T12:54:12.721Z,35
2022-10-15T12:54:55.372Z,35
2022-10-15T12:55:35.495Z,35
2022-10-15T12:56:15.907Z,35
2022-10-15T13:01:41.727Z,35
2022-10-15T13:02:22.273Z,30
2022-10-15T13:03:02.738Z,30
2022-10-15T13:03:43.310Z,30
2022-10-15T13:04:24.021Z,30
2022-10-15T13:05:04.490Z,30
2022-10-15T13:05:46.867Z,30
2022-10-15T13:06:26.172Z,30
2022-10-15T13:13:51.646Z,25
2022-10-15T13:14:32.159Z,25
2022-10-15T13:15:12.653Z,25
2022-10-15T13:15:54.598Z,25
2022-10-15T13:16:33.714Z,25
2022-10-15T13:17:14.195Z,25
2022-10-15T13:17:54.839Z,25
2022-10-15T13:18:35.313Z,25
2022-10-15T13:19:15.870Z,20
2022-10-15T13:19:56.422Z,20
2022-10-15T13:26:01.574Z,25
2022-10-15T13:26:42.113Z,25
2022-10-15T13:27:22.672Z,25
2022-10-15T13:31:02.209Z,20
2022-10-15T13:31:42.618Z,20
2022-10-15T13:32:23.369Z,20
2022-10-15T13:33:03.596Z,15
2022-10-15T13:37:07.167Z,10
2022-10-15T13:37:47.786Z,10
2022-10-15T13:38:28.271Z,10
2022-10-15T13:39:08.726Z,10
2022-10-15T13:39:49.275Z,5
2022-10-15T13:40:29.809Z,5
2022-10-15T13:41:10.243Z,10
2022-10-15T13:41:50.765Z,10
2022-10-15T13:42:31.248Z,10
2022-10-15T13:43:11.716Z,15
2022-10-15T13:46:32.404Z,15
2022-10-15T13:47:13.127Z,15
2022-10-15T13:47:54.247Z,15
2022-10-15T13:48:35.900Z,20
2022-10-15T13:49:17.154Z,20
2022-10-15T13:49:58.137Z,20
2022-10-15T13:50:39.005Z,20
2022-10-15T13:51:19.966Z,20
2022-10-15T13:54:46.462Z,25
2022-10-15T13:56:09.875Z,25
2022-10-15T13:59:36.592Z,25
2022-10-15T14:03:18.731Z,25
2022-10-15T14:03:59.758Z,25
2022-10-15T14:04:40.766Z,25
2022-10-15T14:05:21.922Z,25
2022-10-15T14:06:02.914Z,30
2022-10-15T14:06:44.185Z,30
2022-10-15T14:07:27.605Z,30
2022-10-15T14:08:56.110Z,30
2022-10-15T14:11:05.484Z,30
2022-10-15T14:11:46.209Z,25
2022-10-15T14:12:27.259Z,25
2022-10-15T14:13:08.425Z,25
2022-10-15T14:14:30.800Z,25
2022-10-15T14:15:11.792Z,25
2022-10-15T14:15:52.823Z,25
2022-10-15T14:16:33.733Z,25
2022-10-15T14:17:14.762Z,25
2022-10-15T14:21:20.842Z,25
2022-10-15T14:22:01.963Z,25
2022-10-15T14:22:43.030Z,25
2022-10-15T14:23:23.970Z,25
2022-10-15T14:24:04.912Z,25
2022-10-15T14:28:06.176Z,20
2022-10-15T14:28:46.722Z,20
2022-10-15T14:29:27.109Z,20
2022-10-15T14:30:09.785Z,20
2022-10-15T14:34:50.967Z,20
2022-10-15T14:35:31.402Z,20
2022-10-15T14:36:11.887Z,20
2022-10-15T14:36:52.365Z,15
2022-10-15T14:37:32.859Z,15
2022-10-15T14:38:13.333Z,15
2022-10-15T14:38:53.841Z,15
2022-10-15T14:39:34.373Z,15
2022-10-15T14:40:14.852Z,20
2022-10-15T14:40:55.333Z,15
2022-10-15T14:41:35.788Z,15
2022-10-15T14:49:01.190Z,10
2022-10-15T14:49:41.730Z,10
2022-10-15T14:50:22.199Z,10
2022-10-15T14:51:02.689Z,10
2022-10-15T14:51:43.192Z,10
2022-10-15T14:52:23.692Z,10
2022-10-15T14:53:04.074Z,5
2022-10-15T14:53:44.543Z,5
2022-10-15T14:54:25.050Z,5
2022-10-15T14:55:06.280Z,5
2022-10-15T15:01:51.242Z,0
2022-10-15T15:02:31.778Z,0
2022-10-15T15:03:12.282Z,0
2022-10-15T15:03:52.695Z,0
2022-10-15T15:04:33.328Z,0
2022-10-15T15:05:13.902Z,0
2022-10-15T15:05:55.067Z,0
2022-10-15T15:06:35.644Z,0
2022-10-15T15:14:01.135Z,5
2022-10-15T15:14:41.634Z,5
2022-10-15T15:15:22.122Z,5
2022-10-15T15:16:02.655Z,5
2022-10-15T15:16:43.116Z,5
2022-10-15T15:17:23.603Z,5
2022-10-15T15:18:04.101Z,0
2022-10-15T15:18:44.557Z,0
2022-10-15T15:19:25.038Z,0
2022-10-15T15:20:05.569Z,0
2022-10-15T15:27:30.823Z,0
2022-10-15T15:28:11.248Z,0
2022-10-15T15:28:51.790Z,0
2022-10-15T15:29:32.237Z,0
2022-10-15T15:30:12.702Z,0
2022-10-15T15:30:53.155Z,0
2022-10-15T15:31:33.637Z,0
2022-10-15T15:32:14.091Z,0
2022-10-15T15:32:54.559Z,0
2022-10-15T15:33:35.071Z,0
2022-10-15T15:34:15.504Z,0
2022-10-15T15:41:00.929Z,0
2022-10-15T15:41:41.354Z,0
2022-10-15T15:42:22.004Z,0
2022-10-15T15:43:02.306Z,0
2022-10-15T15:43:42.779Z,0
2022-10-15T15:44:23.250Z,0
2022-10-15T15:45:03.735Z,0
2022-10-15T15:45:44.264Z,0
2022-10-15T15:46:24.739Z,0
2022-10-15T15:47:05.207Z,0
2022-10-15T15:47:45.665Z,0
2022-10-15T15:55:10.954Z,5
2022-10-15T15:55:51.399Z,5
2022-10-15T15:56:31.923Z,5
2022-10-15T15:57:12.361Z,5
2022-10-15T15:57:52.834Z,5
2022-10-15T15:58:33.354Z,5
2022-10-15T15:59:13.839Z,5
2022-10-15T15:59:54.329Z,5
2022-10-15T16:00:34.802Z,5
2022-10-15T16:01:15.342Z,5
2022-10-15T16:01:55.811Z,0
2022-10-15T16:09:21.118Z,0
2022-10-15T16:10:01.554Z,0
2022-10-15T16:10:42.056Z,0
2022-10-15T16:11:22.511Z,0
2022-10-15T16:12:03.004Z,0
2022-10-15T16:12:43.500Z,0
2022-10-15T16:13:24.006Z,0
2022-10-15T16:14:09.140Z,0
2022-10-15T16:21:30.874Z,0
2022-10-15T16:22:11.360Z,0
2022-10-15T16:22:51.862Z,0
2022-10-15T16:23:32.349Z,0
2022-10-15T16:24:12.849Z,0
2022-10-15T16:24:53.345Z,0
2022-10-15T16:25:33.812Z,0
2022-10-15T16:26:14.358Z,0
2022-10-15T16:26:54.818Z,0
2022-10-15T16:27:35.250Z,0
2022-10-15T16:28:15.736Z,0
2022-10-15T16:35:41.060Z,0
2022-10-15T16:36:21.544Z,0
2022-10-15T16:37:02.007Z,0
2022-10-15T16:37:42.456Z,0
2022-10-15T16:38:22.928Z,0
2022-10-15T16:39:03.393Z,0
2022-10-15T16:39:43.842Z,0
2022-10-15T16:40:24.432Z,0
2022-10-15T16:41:04.779Z,0
2022-10-15T16:41:45.325Z,0
2022-10-15T16:42:25.799Z,0
2022-10-15T16:49:50.976Z,0
2022-10-15T16:50:31.433Z,0
2022-10-15T16:51:11.943Z,0
2022-10-15T16:51:52.505Z,0
2022-10-15T16:52:32.931Z,0
2022-10-15T16:53:13.396Z,0
2022-10-15T16:53:53.888Z,0
2022-10-15T16:54:34.391Z,0
2022-10-15T16:55:14.849Z,0
2022-10-15T16:56:35.840Z,0
2022-10-15T17:04:01.206Z,0
2022-10-15T17:04:41.694Z,0
2022-10-15T17:05:22.197Z,0
2022-10-15T17:06:02.662Z,0
2022-10-15T17:06:43.183Z,0
2022-10-15T17:07:23.911Z,0
2022-10-15T17:08:04.073Z,0
2022-10-15T17:08:45.323Z,0
2022-10-15T17:09:25.806Z,0
2022-10-15T17:16:51.123Z,0
2022-10-15T17:17:31.557Z,0
2022-10-15T17:18:12.050Z,0
2022-10-15T17:19:34.081Z,0
2022-10-15T17:20:13.510Z,0
2022-10-15T17:20:53.921Z,0
2022-10-15T17:21:34.421Z,0
2022-10-15T17:22:14.890Z,0
2022-10-15T17:22:55.374Z,0
2022-10-15T17:31:01.069Z,0
2022-10-15T17:31:41.534Z,0
2022-10-15T17:32:22.331Z,0
2022-10-15T17:33:02.509Z,0
2022-10-15T17:33:42.951Z,0
2022-10-15T17:34:23.444Z,0
2022-10-15T17:35:04.434Z,0
2022-10-15T17:35:44.451Z,0
2022-10-15T17:37:05.419Z,0
2022-10-15T17:45:11.213Z,0
2022-10-15T17:45:51.661Z,0
2022-10-15T17:46:32.146Z,0
2022-10-15T17:47:12.606Z,0
2022-10-15T17:47:53.080Z,0
2022-10-15T17:48:33.579Z,0
2022-10-15T17:49:14.047Z,0
2022-10-15T17:49:54.547Z,0
2022-10-15T17:50:35.014Z,0
2022-10-15T17:51:15.514Z,0
2022-10-15T18:34:03.200Z,0
2022-10-15T18:34:43.677Z,0
2022-10-15T18:35:24.402Z,0
2022-10-15T18:40:08.005Z,0
2022-10-15T18:40:48.519Z,0
2022-10-15T18:41:29.020Z,0
2022-10-15T18:42:09.711Z,0
2022-10-15T18:42:50.076Z,0
2022-10-15T18:43:30.552Z,0
2022-10-15T18:44:11.090Z,0
2022-10-15T18:44:51.554Z,0
2022-10-15T18:45:32.070Z,0
2022-10-15T18:46:12.552Z,0
2022-10-15T18:53:38.039Z,0
2022-10-15T18:54:18.504Z,0
2022-10-15T18:54:59.065Z,0
2022-10-15T18:55:39.553Z,0
2022-10-15T18:56:20.097Z,0
2022-10-15T18:57:00.528Z,0
2022-10-15T18:57:41.098Z,0
2022-10-15T18:58:21.529Z,0
2022-10-15T18:59:02.045Z,0
2022-10-15T18:59:42.602Z,0
2022-10-15T19:07:08.064Z,0
2022-10-15T19:07:48.492Z,0
2022-10-15T19:08:29.099Z,0
2022-10-15T19:09:09.620Z,0
2022-10-15T19:09:50.158Z,0
2022-10-15T19:10:30.599Z,0
2022-10-15T19:11:11.104Z,0
2022-10-15T19:11:51.640Z,0
2022-10-15T19:12:32.151Z,0
2022-10-15T19:13:12.570Z,0
2022-10-15T19:19:18.019Z,0
2022-10-15T19:19:58.560Z,0
2022-10-15T19:20:38.981Z,0
2022-10-15T19:21:19.477Z,0
2022-10-15T19:22:00.025Z,0
2022-10-15T19:22:40.544Z,0
2022-10-15T19:23:21.026Z,0
2022-10-15T19:24:01.553Z,0
2022-10-15T19:24:42.167Z,0
2022-10-15T19:32:07.848Z,0
2022-10-15T19:33:28.935Z,0
2022-10-15T19:34:09.402Z,0
2022-10-15T19:34:49.874Z,0
2022-10-15T19:35:30.422Z,0
2022-10-15T19:36:10.924Z,0
2022-10-15T19:36:51.368Z,0
2022-10-15T19:37:31.858Z,0
2022-10-15T19:38:12.377Z,0
2022-10-15T19:44:57.813Z,0
2022-10-15T19:45:38.466Z,0
2022-10-15T19:46:19.001Z,0
2022-10-15T19:46:59.502Z,0
2022-10-15T19:47:39.975Z,0
2022-10-15T19:48:20.457Z,0
2022-10-15T19:49:01.005Z,0
2022-10-15T19:49:41.551Z,0
2022-10-15T19:50:22.006Z,0
2022-10-15T19:51:02.591Z,0
2022-10-15T19:58:19.720Z,0
2022-10-15T19:58:59.975Z,0
2022-10-15T19:59:40.538Z,0
2022-10-15T20:04:24.083Z,0
2022-10-15T20:05:04.575Z,0
2022-10-15T20:05:45.146Z,0
2022-10-15T20:06:25.602Z,0
2022-10-15T20:07:06.102Z,0
2022-10-15T20:07:46.561Z,0
2022-10-15T20:08:27.068Z,0
2022-10-15T20:09:07.594Z,0
2022-10-15T20:09:48.144Z,0
2022-10-15T20:10:28.727Z,0
2022-10-15T20:17:14.188Z,0
2022-10-15T20:17:54.739Z,0
2022-10-15T20:18:35.128Z,0
2022-10-15T20:23:28.726Z,0
2022-10-15T20:24:09.287Z,0
2022-10-15T20:24:49.723Z,0
2022-10-15T20:29:33.249Z,0
2022-10-15T20:30:13.796Z,0
2022-10-15T20:31:34.714Z,0
2022-10-15T20:32:23.299Z,0
2022-10-15T20:32:55.883Z,0
2022-10-15T20:33:36.698Z,0
2022-10-15T20:34:17.397Z,0
2022-10-15T20:34:57.991Z,0
2022-10-15T20:39:33.553Z,0
2022-10-15T20:40:13.820Z,0
2022-10-15T20:40:54.295Z,0
2022-10-15T20:46:18.117Z,0
2022-10-15T20:46:58.578Z,0
2022-10-15T20:47:39.079Z,0
2022-10-15T20:48:19.587Z,0
2022-10-15T20:49:02.173Z,0
2022-10-15T20:49:40.498Z,0
2022-10-15T20:50:21.006Z,0
2022-10-15T20:51:01.496Z,0
2022-10-15T20:51:42.330Z,0
2022-10-15T20:52:23.042Z,0
2022-10-15T20:56:57.567Z,0
2022-10-15T20:57:38.021Z,0
2022-10-15T20:58:18.494Z,0
2022-10-15T21:03:42.359Z,0
2022-10-15T21:04:22.818Z,0
2022-10-15T21:05:03.334Z,0
2022-10-15T21:05:43.957Z,0
2022-10-15T21:06:24.339Z,0
2022-10-15T21:07:04.818Z,0
2022-10-15T21:07:45.282Z,0
2022-10-15T21:08:25.805Z,0
2022-10-15T21:09:06.224Z,0
2022-10-15T21:09:46.704Z,0
2022-10-15T21:10:27.215Z,0
2022-10-15T21:17:52.516Z,0
2022-10-15T21:18:33.003Z,0
2022-10-15T21:19:13.463Z,0
2022-10-15T21:19:53.973Z,0
2022-10-15T21:20:34.424Z,0
2022-10-15T21:21:14.902Z,0
2022-10-15T21:21:55.389Z,0
2022-10-15T21:22:35.841Z,0
2022-10-15T21:23:16.350Z,0
2022-10-15T21:23:56.825Z,0
2022-10-15T21:31:22.221Z,0
2022-10-15T21:32:02.716Z,0
2022-10-15T21:32:43.176Z,0
2022-10-15T21:33:23.687Z,0
2022-10-15T21:34:04.148Z,0
2022-10-15T21:34:45.230Z,0
2022-10-15T21:35:25.687Z,0
2022-10-15T21:36:06.204Z,0
2022-10-15T21:36:46.640Z,0
2022-10-15T21:37:27.561Z,0
2022-10-15T21:44:52.523Z,0
2022-10-15T21:45:32.991Z,0
2022-10-15T21:46:13.462Z,0
2022-10-15T21:46:53.986Z,0
2022-10-15T21:47:34.485Z,0
2022-10-15T21:48:14.973Z,0
2022-10-15T21:48:55.481Z,0
2022-10-15T21:49:35.968Z,0
2022-10-15T21:50:16.487Z,0
2022-10-15T21:50:56.964Z,0
2022-10-15T21:58:22.429Z,0
2022-10-15T21:59:02.976Z,0
2022-10-15T21:59:43.430Z,0
2022-10-15T22:00:23.958Z,0
2022-10-15T22:01:04.483Z,0
2022-10-15T22:01:44.952Z,0
2022-10-15T22:02:25.353Z,0
2022-10-15T22:03:05.868Z,0
2022-10-15T22:03:46.312Z,0
2022-10-15T22:04:26.807Z,0
2022-10-15T22:10:22.764Z,0
2022-10-15T22:11:03.161Z,0
2022-10-15T22:11:43.674Z,0
2022-10-15T22:16:27.683Z,0
2022-10-15T22:17:08.180Z,0
2022-10-15T22:17:48.656Z,0
2022-10-15T22:18:29.140Z,0
2022-10-15T22:19:09.679Z,0
2022-10-15T22:19:50.128Z,0
2022-10-15T22:20:30.685Z,0
2022-10-15T22:21:11.132Z,0
2022-10-15T22:21:51.721Z,0
2022-10-15T22:22:32.117Z,0
2022-10-15T22:29:57.521Z,0
2022-10-15T22:30:37.979Z,0
2022-10-15T22:31:18.482Z,0
2022-10-15T22:31:58.970Z,0
2022-10-15T22:32:39.454Z,0
2022-10-15T22:33:19.964Z,0
2022-10-15T22:34:00.451Z,0
2022-10-15T22:34:41.001Z,0
2022-10-15T22:35:21.430Z,0
2022-10-15T22:36:01.934Z,0
2022-10-15T22:38:19.734Z,0
2022-10-15T22:39:00.217Z,0
2022-10-15T22:39:40.636Z,0
2022-10-15T22:45:04.628Z,0
2022-10-15T22:45:45.072Z,0